createdAt,value
2022-10-07T00:01:23.980Z,4.33
2022-10-07T00:06:28.535Z,6.60
2022-10-07T00:11:31.271Z,5.65
2022-10-07T00:16:36.881Z,9.98
2022-10-07T00:21:41.705Z,6.78
2022-10-07T00:26:44.637Z,7.22
2022-10-07T00:31:47.452Z,7.30
2022-10-07T00:36:51.739Z,9.70
2022-10-07T00:41:54.366Z,7.13
2022-10-07T00:46:57.256Z,7.38
2022-10-07T00:52:01.206Z,6.78
2022-10-07T00:57:05.096Z,7.40
2022-10-07T01:02:09.307Z,5.70
2022-10-07T01:07:15.451Z,7.25
2022-10-07T01:12:24.465Z,7.65
2022-10-07T01:17:37.882Z,6.38
2022-10-07T01:22:54.431Z,6.68
2022-10-07T01:28:04.986Z,8.65
2022-10-07T01:33:14.170Z,7.22
2022-10-07T01:38:21.135Z,7.05
2022-10-07T01:43:25.359Z,11.13
2022-10-07T01:48:28.024Z,5.28
2022-10-07T01:53:45.554Z,11.63
2022-10-07T01:59:13.975Z,6.80
2022-10-07T02:04:31.045Z,11.82
2022-10-07T02:09:38.492Z,7.93
2022-10-07T02:14:50.676Z,6.53
2022-10-07T02:19:56.474Z,7.25
2022-10-07T02:25:01.067Z,6.55
2022-10-07T02:35:17.504Z,5.78
2022-10-07T02:40:21.420Z,7.75
2022-10-07T02:45:33.171Z,5.97
2022-10-07T02:50:41.103Z,5.95
2022-10-07T02:55:46.153Z,7.65
2022-10-07T03:00:58.548Z,7.80
2022-10-07T03:06:01.799Z,6.38
2022-10-07T03:11:04.364Z,6.53
2022-10-07T03:16:08.491Z,7.95
2022-10-07T03:21:11.138Z,8.05
2022-10-07T03:26:13.738Z,6.28
2022-10-07T03:31:17.781Z,6.75
2022-10-07T03:36:20.400Z,5.85
2022-10-07T03:41:23.241Z,6.63
2022-10-07T03:46:27.281Z,10.13
2022-10-07T03:51:29.919Z,8.05
2022-10-07T03:56:32.533Z,6.30
2022-10-07T04:01:37.344Z,5.68
2022-10-07T04:06:39.910Z,10.90
2022-10-07T04:11:43.705Z,8.85
2022-10-07T04:16:47.650Z,6.07
2022-10-07T04:21:50.318Z,6.20
2022-10-07T04:26:52.870Z,7.05
2022-10-07T04:31:58.836Z,8.43
2022-10-07T04:37:01.608Z,9.25
2022-10-07T04:42:04.204Z,7.15
2022-10-07T04:47:08.206Z,6.57
2022-10-07T04:52:11.150Z,3.90
2022-10-07T04:57:14.468Z,8.73
2022-10-07T05:02:18.445Z,9.52
2022-10-07T05:07:21.026Z,8.82
2022-10-07T05:12:25.885Z,10.73
2022-10-07T05:17:30.084Z,10.55
2022-10-07T05:22:32.701Z,11.23
2022-10-07T05:27:35.279Z,10.38
2022-10-07T05:32:39.998Z,9.70
2022-10-07T05:37:45.407Z,8.57
2022-10-07T05:42:50.770Z,7.75
2022-10-07T05:47:54.933Z,10.45
2022-10-07T05:52:58.008Z,6.40
2022-10-07T05:58:00.753Z,19.15
2022-10-07T06:03:05.049Z,34.22
2022-10-07T06:08:07.711Z,23.55
2022-10-07T06:13:10.545Z,16.35
2022-10-07T06:18:14.741Z,14.43
2022-10-07T06:23:17.745Z,9.25
2022-10-07T06:28:20.297Z,10.00
2022-10-07T06:33:24.329Z,15.70
2022-10-07T06:38:27.094Z,10.23
2022-10-07T06:43:31.926Z,8.38
2022-10-07T06:48:36.713Z,11.80
2022-10-07T06:53:39.391Z,8.82
2022-10-07T06:58:42.579Z,13.93
2022-10-07T07:03:49.310Z,10.50
2022-10-07T07:08:52.124Z,10.93
2022-10-07T07:13:54.803Z,9.07
2022-10-07T07:19:01.792Z,9.40
2022-10-07T07:24:04.697Z,8.55
2022-10-07T07:29:08.086Z,9.18
2022-10-07T07:34:13.605Z,11.25
2022-10-07T07:39:18.237Z,8.50
2022-10-07T07:44:21.354Z,7.03
2022-10-07T07:49:25.969Z,7.18
2022-10-07T07:59:33.143Z,13.98
2022-10-07T08:04:37.051Z,10.35
2022-10-07T08:09:39.672Z,9.30
2022-10-07T08:14:43.252Z,8.70
2022-10-07T08:19:47.261Z,9.53
2022-10-07T08:24:49.862Z,4.93
2022-10-07T08:29:52.636Z,9.68
2022-10-07T08:34:56.560Z,8.77
2022-10-07T08:39:59.086Z,10.23
2022-10-07T08:45:02.269Z,9.27
2022-10-07T08:50:16.718Z,8.00
2022-10-07T08:55:28.037Z,6.78
2022-10-07T09:00:40.922Z,6.28
2022-10-07T09:05:49.991Z,8.77
2022-10-07T09:10:53.536Z,8.90
2022-10-07T09:16:00.295Z,8.40
2022-10-07T09:21:09.599Z,7.10
2022-10-07T09:26:13.500Z,6.22
2022-10-07T09:31:17.143Z,4.80
2022-10-07T09:36:21.226Z,6.75
2022-10-07T09:41:31.406Z,7.88
2022-10-07T09:46:53.316Z,7.43
2022-10-07T09:52:05.641Z,5.10
2022-10-07T09:57:33.936Z,7.78
2022-10-07T10:02:37.101Z,7.95
2022-10-07T10:07:54.288Z,4.82
2022-10-07T10:12:59.207Z,5.60
2022-10-07T10:18:01.834Z,7.28
2022-10-07T10:23:26.470Z,10.60
2022-10-07T10:28:40.327Z,5.07
2022-10-07T10:33:48.251Z,3.85
2022-10-07T10:39:01.474Z,2.63
2022-10-07T10:44:33.439Z,3.55
2022-10-07T10:49:39.258Z,3.33
2022-10-07T10:54:58.258Z,3.05
2022-10-07T11:00:11.208Z,6.65
2022-10-07T11:05:17.325Z,4.25
2022-10-07T11:10:25.527Z,3.45
2022-10-07T11:15:37.084Z,3.70
2022-10-07T11:20:44.920Z,3.60
2022-10-07T11:25:54.190Z,3.72
2022-10-07T11:31:06.087Z,3.08
2022-10-07T11:36:15.270Z,3.17
2022-10-07T11:41:26.011Z,6.05
2022-10-07T11:46:33.738Z,2.88
2022-10-07T11:51:40.197Z,2.95
2022-10-07T11:56:49.862Z,2.63
2022-10-07T12:01:53.700Z,3.13
2022-10-07T12:07:34.812Z,2.97
2022-10-07T12:12:51.823Z,6.05
2022-10-07T12:18:28.437Z,4.22
2022-10-07T12:23:42.720Z,3.92
2022-10-07T12:28:48.727Z,3.17
2022-10-07T12:33:59.067Z,6.43
2022-10-07T12:39:37.059Z,2.55
2022-10-07T12:44:45.493Z,4.15
2022-10-07T12:49:53.114Z,3.42
2022-10-07T12:54:59.576Z,4.07
2022-10-07T13:00:08.067Z,4.30
2022-10-07T13:05:56.081Z,4.07
2022-10-07T13:11:35.358Z,5.68
2022-10-07T13:16:45.086Z,4.35
2022-10-07T13:21:56.420Z,6.07
2022-10-07T13:27:00.944Z,2.63
2022-10-07T13:32:05.962Z,6.93
2022-10-07T13:37:27.475Z,6.35
2022-10-07T13:42:31.508Z,5.70
2022-10-07T13:47:35.146Z,2.70
2022-10-07T13:52:40.785Z,4.43
2022-10-07T13:57:45.499Z,4.13
2022-10-07T14:02:50.846Z,2.42
2022-10-07T14:07:55.871Z,5.55
2022-10-07T14:13:03.271Z,3.00
2022-10-07T14:18:08.783Z,2.33
2022-10-07T14:23:21.579Z,4.57
2022-10-07T14:28:30.997Z,7.07
2022-10-07T14:34:03.438Z,4.43
2022-10-07T14:39:25.107Z,3.58
2022-10-07T14:44:30.101Z,4.35
2022-10-07T14:49:32.779Z,4.72
2022-10-07T14:54:35.883Z,3.53
2022-10-07T15:09:48.554Z,3.80
2022-10-07T15:14:52.693Z,4.85
2022-10-07T15:19:55.385Z,3.42
2022-10-07T15:24:58.229Z,6.20
2022-10-07T15:30:02.190Z,4.90
2022-10-07T15:35:05.106Z,5.38
2022-10-07T15:40:09.454Z,6.63
2022-10-07T15:45:13.678Z,5.47
2022-10-07T15:50:16.597Z,4.13
2022-10-07T15:55:19.646Z,4.22
2022-10-07T16:00:23.645Z,6.35
2022-10-07T16:05:26.238Z,3.88
2022-10-07T16:10:28.817Z,3.85
2022-10-07T16:15:32.866Z,9.00
2022-10-07T16:20:39.694Z,3.83
2022-10-07T16:25:42.455Z,5.47
2022-10-07T16:30:51.193Z,6.60
2022-10-07T16:35:53.868Z,15.70
2022-10-07T16:40:59.003Z,7.15
2022-10-07T16:46:04.676Z,8.43
2022-10-07T16:51:10.373Z,10.77
2022-10-07T16:56:13.661Z,11.07
2022-10-07T17:01:18.163Z,8.73
2022-10-07T17:06:22.495Z,12.27
2022-10-07T17:11:31.433Z,15.88
2022-10-07T17:16:37.833Z,17.30
2022-10-07T17:21:42.057Z,17.15
2022-10-07T17:26:45.509Z,10.75
2022-10-07T17:31:51.201Z,7.57
2022-10-07T17:36:54.039Z,9.70
2022-10-07T17:41:57.515Z,11.15
2022-10-07T17:47:03.803Z,10.73
2022-10-07T17:52:06.679Z,9.40
2022-10-07T17:57:14.601Z,13.43
2022-10-07T18:02:18.854Z,10.50
2022-10-07T18:07:21.893Z,7.32
2022-10-07T18:12:42.219Z,7.43
2022-10-07T18:17:47.871Z,8.50
2022-10-07T18:22:57.288Z,7.45
2022-10-07T18:28:02.528Z,9.13
2022-10-07T18:33:06.559Z,3.55
2022-10-07T18:38:09.112Z,5.00
2022-10-07T18:43:11.739Z,5.63
2022-10-07T18:48:15.885Z,6.13
2022-10-07T18:53:18.453Z,7.10
2022-10-07T18:58:22.392Z,6.22
2022-10-07T19:03:29.379Z,8.50
2022-10-07T19:08:32.000Z,7.38
2022-10-07T19:13:50.910Z,5.78
2022-10-07T19:18:56.729Z,7.80
2022-10-07T19:24:01.503Z,7.78
2022-10-07T19:29:06.580Z,6.25
2022-10-07T19:34:14.403Z,9.02
2022-10-07T19:39:18.921Z,8.35
2022-10-07T19:44:22.125Z,8.55
2022-10-07T19:49:26.329Z,11.50
2022-10-07T19:54:30.427Z,7.95
2022-10-07T19:59:33.028Z,9.75
2022-10-07T20:04:36.913Z,8.98
2022-10-07T20:09:39.548Z,7.85
2022-10-07T20:14:42.223Z,10.70
2022-10-07T20:19:46.139Z,7.95
2022-10-07T20:24:48.814Z,9.05
2022-10-07T20:30:02.374Z,10.93
2022-10-07T20:35:10.653Z,10.85
2022-10-07T20:40:31.165Z,9.02
2022-10-07T20:45:54.359Z,13.27
2022-10-07T20:51:04.452Z,11.63
2022-10-07T20:56:08.714Z,12.52
2022-10-07T21:01:11.474Z,6.80
2022-10-07T21:06:18.119Z,7.05
2022-10-07T21:11:20.705Z,8.90
2022-10-07T21:16:24.234Z,7.68
2022-10-07T21:21:29.014Z,9.07
2022-10-07T21:26:31.615Z,10.02
2022-10-07T21:31:35.693Z,9.43
2022-10-07T21:36:49.224Z,7.45
2022-10-07T21:41:54.684Z,10.73
2022-10-07T21:46:59.831Z,10.88
2022-10-07T21:52:04.009Z,11.43
2022-10-07T21:57:06.604Z,11.68
2022-10-07T22:02:09.454Z,10.77
2022-10-07T22:07:31.168Z,13.95
2022-10-07T22:12:33.838Z,11.95
2022-10-07T22:17:36.786Z,10.40
2022-10-07T22:22:41.248Z,10.60
2022-10-07T22:32:46.701Z,10.15
2022-10-07T22:37:50.805Z,8.57
2022-10-07T22:42:53.669Z,11.88
2022-10-07T22:47:56.257Z,10.77
2022-10-07T22:53:00.439Z,12.07
2022-10-07T22:58:03.095Z,7.70
2022-10-07T23:03:06.215Z,14.48
2022-10-07T23:08:10.198Z,16.60
2022-10-07T23:13:12.704Z,19.55
2022-10-07T23:18:15.283Z,16.55
2022-10-07T23:23:19.208Z,20.92
2022-10-07T23:28:23.751Z,21.02
2022-10-07T23:33:26.405Z,20.83
2022-10-07T23:38:30.854Z,22.48
2022-10-07T23:48:36.243Z,23.35
2022-10-07T23:53:40.372Z,20.98
2022-10-07T23:58:42.986Z,19.70
